LEZG/ZAZ METAR and TAF weather

Enter ICAO airport designator
Station Type Date Time Source
LEZG METAR 2023/02/04 03:30 UTC NOAA

LEZG 040330Z 28009KT CAVOK 04/M01 Q1031


Station Type Date Time Source
LEZG Decoded METAR 2023/02/04 03:30 UTC NOAA

Zaragoza / Aeropuerto, Spain (LEZG) 41-40N 001-01W 258M
Feb 03, 2023 - 10:30 PM EST / 2023.02.04 0330 UTC
Wind: from the W (280 degrees) at 10 MPH (9 KT):0
Visibility: greater than 7 mile(s):0
Temperature: 39 F (4 C)
Dew Point: 30 F (-1 C)
Relative Humidity: 69%
Pressure (altimeter): 30.45 in. Hg (1031 hPa)
ob: LEZG 040330Z 28009KT CAVOK 04/M01 Q1031
cycle: 3

Station Type Date Time Source
LEZG TAF 2023/02/03 18:27 UTC NOAA

TAF LEZG 031700Z 0318/0418 28010KT CAVOK TX15/0414Z TN02/0407Z
BECMG 0406/0408 30015KT
TEMPO 0411/0418 31020G30KT

Example: see airport list